sensor_id;sensor_type;location;lat;lon;timestamp;P1;durP1;ratioP1;P2;durP2;ratioP2
4553;SDS011;2289;48.316;15.174;2023-05-13T00:00:01;2.63;;;2.43;;
4553;SDS011;2289;48.316;15.174;2023-05-13T00:02:30;2.57;;;2.37;;
4553;SDS011;2289;48.316;15.174;2023-05-13T00:04:59;2.70;;;2.50;;
4553;SDS011;2289;48.316;15.174;2023-05-13T00:07:31;3.13;;;2.93;;
4553;SDS011;2289;48.316;15.174;2023-05-13T00:10:00;2.37;;;2.20;;
4553;SDS011;2289;48.316;15.174;2023-05-13T00:12:30;2.27;;;2.13;;
4553;SDS011;2289;48.316;15.174;2023-05-13T00:15:01;3.30;;;2.60;;
4553;SDS011;2289;48.316;15.174;2023-05-13T00:17:30;2.20;;;2.00;;
4553;SDS011;2289;48.316;15.174;2023-05-13T00:19:59;2.20;;;2.00;;
4553;SDS011;2289;48.316;15.174;2023-05-13T00:22:28;2.67;;;2.47;;
4553;SDS011;2289;48.316;15.174;2023-05-13T00:24:57;1.90;;;1.80;;
4553;SDS011;2289;48.316;15.174;2023-05-13T00:27:26;1.77;;;1.60;;
4553;SDS011;2289;48.316;15.174;2023-05-13T00:29:57;2.30;;;2.10;;
4553;SDS011;2289;48.316;15.174;2023-05-13T00:32:26;2.63;;;2.43;;
4553;SDS011;2289;48.316;15.174;2023-05-13T00:34:55;2.30;;;2.10;;
4553;SDS011;2289;48.316;15.174;2023-05-13T00:37:24;2.00;;;1.90;;
4553;SDS011;2289;48.316;15.174;2023-05-13T00:39:55;2.93;;;2.13;;
4553;SDS011;2289;48.316;15.174;2023-05-13T00:42:27;1.93;;;1.83;;
4553;SDS011;2289;48.316;15.174;2023-05-13T00:44:57;2.13;;;2.03;;
4553;SDS011;2289;48.316;15.174;2023-05-13T00:47:25;2.03;;;1.80;;
4553;SDS011;2289;48.316;15.174;2023-05-13T00:49:55;1.97;;;1.77;;
4553;SDS011;2289;48.316;15.174;2023-05-13T00:52:24;2.30;;;2.10;;
4553;SDS011;2289;48.316;15.174;2023-05-13T00:54:54;2.00;;;1.90;;
4553;SDS011;2289;48.316;15.174;2023-05-13T00:57:23;1.60;;;1.50;;
4553;SDS011;2289;48.316;15.174;2023-05-13T00:59:52;2.20;;;2.00;;
4553;SDS011;2289;48.316;15.174;2023-05-13T01:02:25;2.00;;;1.90;;
4553;SDS011;2289;48.316;15.174;2023-05-13T01:04:58;1.93;;;1.83;;
4553;SDS011;2289;48.316;15.174;2023-05-13T01:07:38;2.10;;;2.00;;
4553;SDS011;2289;48.316;15.174;2023-05-13T01:10:13;2.13;;;1.90;;
4553;SDS011;2289;48.316;15.174;2023-05-13T01:12:45;2.07;;;1.70;;
4553;SDS011;2289;48.316;15.174;2023-05-13T01:15:18;2.10;;;2.00;;
4553;SDS011;2289;48.316;15.174;2023-05-13T01:17:52;2.20;;;1.70;;
4553;SDS011;2289;48.316;15.174;2023-05-13T01:20:23;3.30;;;2.23;;
4553;SDS011;2289;48.316;15.174;2023-05-13T01:22:55;2.40;;;2.20;;
4553;SDS011;2289;48.316;15.174;2023-05-13T01:25:24;2.10;;;1.90;;
4553;SDS011;2289;48.316;15.174;2023-05-13T01:27:53;2.83;;;2.57;;
4553;SDS011;2289;48.316;15.174;2023-05-13T01:30:21;2.10;;;1.90;;
4553;SDS011;2289;48.316;15.174;2023-05-13T01:32:53;2.03;;;1.93;;
4553;SDS011;2289;48.316;15.174;2023-05-13T01:35:23;2.17;;;1.90;;
4553;SDS011;2289;48.316;15.174;2023-05-13T01:37:52;2.23;;;1.90;;
4553;SDS011;2289;48.316;15.174;2023-05-13T01:40:23;2.13;;;1.93;;
4553;SDS011;2289;48.316;15.174;2023-05-13T01:42:58;3.10;;;2.40;;
4553;SDS011;2289;48.316;15.174;2023-05-13T01:45:27;1.83;;;1.50;;
4553;SDS011;2289;48.316;15.174;2023-05-13T01:47:56;2.30;;;2.10;;
4553;SDS011;2289;48.316;15.174;2023-05-13T01:50:26;1.97;;;1.87;;
4553;SDS011;2289;48.316;15.174;2023-05-13T01:52:56;2.60;;;2.27;;
4553;SDS011;2289;48.316;15.174;2023-05-13T01:55:25;2.07;;;1.80;;
4553;SDS011;2289;48.316;15.174;2023-05-13T01:57:54;2.73;;;1.90;;
4553;SDS011;2289;48.316;15.174;2023-05-13T02:00:23;1.80;;;1.70;;
4553;SDS011;2289;48.316;15.174;2023-05-13T02:02:52;2.10;;;1.90;;
4553;SDS011;2289;48.316;15.174;2023-05-13T02:05:21;1.83;;;1.73;;
4553;SDS011;2289;48.316;15.174;2023-05-13T02:07:50;2.77;;;2.17;;
4553;SDS011;2289;48.316;15.174;2023-05-13T02:10:20;2.30;;;2.10;;
4553;SDS011;2289;48.316;15.174;2023-05-13T02:12:49;2.13;;;1.90;;
4553;SDS011;2289;48.316;15.174;2023-05-13T02:15:18;1.97;;;1.77;;
4553;SDS011;2289;48.316;15.174;2023-05-13T02:17:46;1.90;;;1.80;;
4553;SDS011;2289;48.316;15.174;2023-05-13T02:20:15;3.93;;;2.10;;
4553;SDS011;2289;48.316;15.174;2023-05-13T02:22:44;4.40;;;1.90;;
4553;SDS011;2289;48.316;15.174;2023-05-13T02:25:13;2.80;;;1.87;;
4553;SDS011;2289;48.316;15.174;2023-05-13T02:27:44;2.20;;;2.00;;
4553;SDS011;2289;48.316;15.174;2023-05-13T02:30:12;2.57;;;2.37;;
4553;SDS011;2289;48.316;15.174;2023-05-13T02:32:41;2.93;;;2.57;;
4553;SDS011;2289;48.316;15.174;2023-05-13T02:35:11;1.63;;;1.53;;
4553;SDS011;2289;48.316;15.174;2023-05-13T02:37:40;1.90;;;1.80;;
4553;SDS011;2289;48.316;15.174;2023-05-13T02:40:09;2.33;;;2.13;;
4553;SDS011;2289;48.316;15.174;2023-05-13T02:42:39;2.47;;;1.90;;
4553;SDS011;2289;48.316;15.174;2023-05-13T02:45:10;1.83;;;1.40;;
4553;SDS011;2289;48.316;15.174;2023-05-13T02:47:39;1.90;;;1.80;;
4553;SDS011;2289;48.316;15.174;2023-05-13T02:50:08;1.70;;;1.60;;
4553;SDS011;2289;48.316;15.174;2023-05-13T02:52:38;2.13;;;1.83;;
4553;SDS011;2289;48.316;15.174;2023-05-13T02:55:08;1.60;;;1.50;;
4553;SDS011;2289;48.316;15.174;2023-05-13T02:57:38;1.80;;;1.70;;
4553;SDS011;2289;48.316;15.174;2023-05-13T03:00:07;1.57;;;1.47;;
4553;SDS011;2289;48.316;15.174;2023-05-13T03:02:38;2.10;;;1.97;;
4553;SDS011;2289;48.316;15.174;2023-05-13T03:05:08;4.53;;;2.03;;
4553;SDS011;2289;48.316;15.174;2023-05-13T03:07:37;1.70;;;1.60;;
4553;SDS011;2289;48.316;15.174;2023-05-13T03:10:06;2.13;;;1.97;;
4553;SDS011;2289;48.316;15.174;2023-05-13T03:12:36;2.03;;;1.83;;
4553;SDS011;2289;48.316;15.174;2023-05-13T03:15:05;1.97;;;1.87;;
4553;SDS011;2289;48.316;15.174;2023-05-13T03:17:35;2.90;;;2.20;;
4553;SDS011;2289;48.316;15.174;2023-05-13T03:20:06;2.23;;;2.03;;
4553;SDS011;2289;48.316;15.174;2023-05-13T03:22:35;2.00;;;1.90;;
4553;SDS011;2289;48.316;15.174;2023-05-13T03:25:05;1.67;;;1.57;;
4553;SDS011;2289;48.316;15.174;2023-05-13T03:27:34;2.20;;;2.10;;
4553;SDS011;2289;48.316;15.174;2023-05-13T03:30:03;3.17;;;2.87;;
4553;SDS011;2289;48.316;15.174;2023-05-13T03:32:33;2.43;;;2.23;;
4553;SDS011;2289;48.316;15.174;2023-05-13T03:35:02;2.03;;;1.93;;
4553;SDS011;2289;48.316;15.174;2023-05-13T03:37:33;2.67;;;2.47;;
4553;SDS011;2289;48.316;15.174;2023-05-13T03:40:02;1.67;;;1.57;;
4553;SDS011;2289;48.316;15.174;2023-05-13T03:42:31;2.37;;;2.17;;
4553;SDS011;2289;48.316;15.174;2023-05-13T03:45:00;2.10;;;1.90;;
4553;SDS011;2289;48.316;15.174;2023-05-13T03:47:29;1.87;;;1.77;;
4553;SDS011;2289;48.316;15.174;2023-05-13T03:49:58;2.00;;;1.90;;
4553;SDS011;2289;48.316;15.174;2023-05-13T03:52:28;2.60;;;2.40;;
4553;SDS011;2289;48.316;15.174;2023-05-13T03:54:57;3.20;;;2.50;;
4553;SDS011;2289;48.316;15.174;2023-05-13T03:57:25;2.13;;;2.03;;
4553;SDS011;2289;48.316;15.174;2023-05-13T03:59:54;2.00;;;1.90;;
4553;SDS011;2289;48.316;15.174;2023-05-13T04:02:23;2.30;;;2.10;;
4553;SDS011;2289;48.316;15.174;2023-05-13T04:04:55;2.00;;;1.80;;
4553;SDS011;2289;48.316;15.174;2023-05-13T04:07:23;2.13;;;2.00;;
4553;SDS011;2289;48.316;15.174;2023-05-13T04:09:53;3.10;;;2.70;;
4553;SDS011;2289;48.316;15.174;2023-05-13T04:12:22;2.17;;;1.97;;
4553;SDS011;2289;48.316;15.174;2023-05-13T04:14:51;2.50;;;2.03;;
4553;SDS011;2289;48.316;15.174;2023-05-13T04:17:20;2.43;;;2.33;;
4553;SDS011;2289;48.316;15.174;2023-05-13T04:19:51;2.90;;;2.30;;
4553;SDS011;2289;48.316;15.174;2023-05-13T04:22:20;2.63;;;2.43;;
4553;SDS011;2289;48.316;15.174;2023-05-13T04:24:48;2.30;;;2.13;;
4553;SDS011;2289;48.316;15.174;2023-05-13T04:27:23;2.70;;;2.50;;
4553;SDS011;2289;48.316;15.174;2023-05-13T04:29:52;3.50;;;3.20;;
4553;SDS011;2289;48.316;15.174;2023-05-13T04:32:21;4.27;;;3.23;;
4553;SDS011;2289;48.316;15.174;2023-05-13T04:34:51;4.50;;;3.40;;
4553;SDS011;2289;48.316;15.174;2023-05-13T04:37:20;2.73;;;2.47;;
4553;SDS011;2289;48.316;15.174;2023-05-13T04:39:49;2.93;;;2.63;;
4553;SDS011;2289;48.316;15.174;2023-05-13T04:42:18;2.90;;;2.60;;
4553;SDS011;2289;48.316;15.174;2023-05-13T04:44:48;3.10;;;2.80;;
4553;SDS011;2289;48.316;15.174;2023-05-13T04:47:19;5.13;;;4.53;;
4553;SDS011;2289;48.316;15.174;2023-05-13T04:49:48;5.20;;;4.10;;
4553;SDS011;2289;48.316;15.174;2023-05-13T04:52:17;2.63;;;2.43;;
4553;SDS011;2289;48.316;15.174;2023-05-13T04:54:46;2.80;;;2.60;;
4553;SDS011;2289;48.316;15.174;2023-05-13T04:57:14;2.60;;;2.40;;
4553;SDS011;2289;48.316;15.174;2023-05-13T04:59:43;2.47;;;2.27;;
4553;SDS011;2289;48.316;15.174;2023-05-13T05:02:13;3.13;;;2.87;;
4553;SDS011;2289;48.316;15.174;2023-05-13T05:04:43;2.57;;;2.37;;
4553;SDS011;2289;48.316;15.174;2023-05-13T05:07:12;2.90;;;2.70;;
4553;SDS011;2289;48.316;15.174;2023-05-13T05:09:40;2.50;;;2.23;;
4553;SDS011;2289;48.316;15.174;2023-05-13T05:12:09;2.93;;;2.47;;
4553;SDS011;2289;48.316;15.174;2023-05-13T05:14:38;2.47;;;2.37;;
4553;SDS011;2289;48.316;15.174;2023-05-13T05:17:07;3.73;;;3.33;;
4553;SDS011;2289;48.316;15.174;2023-05-13T05:19:37;3.07;;;2.77;;
4553;SDS011;2289;48.316;15.174;2023-05-13T05:22:06;3.97;;;3.07;;
4553;SDS011;2289;48.316;15.174;2023-05-13T05:24:34;2.57;;;2.37;;
4553;SDS011;2289;48.316;15.174;2023-05-13T05:27:03;2.33;;;2.10;;
4553;SDS011;2289;48.316;15.174;2023-05-13T05:29:32;2.70;;;2.50;;
4553;SDS011;2289;48.316;15.174;2023-05-13T05:32:01;3.17;;;2.90;;
4553;SDS011;2289;48.316;15.174;2023-05-13T05:34:30;2.40;;;2.20;;
4553;SDS011;2289;48.316;15.174;2023-05-13T05:37:00;3.27;;;2.97;;
4553;SDS011;2289;48.316;15.174;2023-05-13T05:39:29;4.27;;;3.53;;
4553;SDS011;2289;48.316;15.174;2023-05-13T05:41:58;4.57;;;3.60;;
4553;SDS011;2289;48.316;15.174;2023-05-13T05:44:27;8.50;;;5.20;;
4553;SDS011;2289;48.316;15.174;2023-05-13T05:46:55;5.27;;;3.40;;
4553;SDS011;2289;48.316;15.174;2023-05-13T05:49:24;5.07;;;4.50;;
4553;SDS011;2289;48.316;15.174;2023-05-13T05:51:53;4.53;;;4.10;;
4553;SDS011;2289;48.316;15.174;2023-05-13T05:54:24;4.40;;;3.17;;
4553;SDS011;2289;48.316;15.174;2023-05-13T05:56:52;4.70;;;3.20;;
4553;SDS011;2289;48.316;15.174;2023-05-13T05:59:21;3.60;;;3.30;;
4553;SDS011;2289;48.316;15.174;2023-05-13T06:01:50;9.47;;;6.57;;
4553;SDS011;2289;48.316;15.174;2023-05-13T06:04:18;13.13;;;9.43;;
4553;SDS011;2289;48.316;15.174;2023-05-13T06:06:48;6.20;;;4.53;;
4553;SDS011;2289;48.316;15.174;2023-05-13T06:09:16;9.90;;;5.40;;
4553;SDS011;2289;48.316;15.174;2023-05-13T06:11:46;4.07;;;3.10;;
4553;SDS011;2289;48.316;15.174;2023-05-13T06:14:15;4.23;;;3.27;;
4553;SDS011;2289;48.316;15.174;2023-05-13T06:16:44;3.17;;;2.70;;
4553;SDS011;2289;48.316;15.174;2023-05-13T06:19:12;3.50;;;2.97;;
4553;SDS011;2289;48.316;15.174;2023-05-13T06:21:42;3.03;;;2.73;;
4553;SDS011;2289;48.316;15.174;2023-05-13T06:24:11;4.10;;;3.40;;
4553;SDS011;2289;48.316;15.174;2023-05-13T06:26:40;3.50;;;3.23;;
4553;SDS011;2289;48.316;15.174;2023-05-13T06:29:11;3.00;;;2.80;;
4553;SDS011;2289;48.316;15.174;2023-05-13T06:31:40;3.67;;;3.37;;
4553;SDS011;2289;48.316;15.174;2023-05-13T06:34:09;5.20;;;4.30;;
4553;SDS011;2289;48.316;15.174;2023-05-13T06:36:42;4.67;;;3.97;;
4553;SDS011;2289;48.316;15.174;2023-05-13T06:39:12;4.20;;;3.90;;
4553;SDS011;2289;48.316;15.174;2023-05-13T06:41:41;4.97;;;4.57;;
4553;SDS011;2289;48.316;15.174;2023-05-13T06:44:11;7.93;;;4.40;;
4553;SDS011;2289;48.316;15.174;2023-05-13T06:46:40;5.07;;;4.60;;
4553;SDS011;2289;48.316;15.174;2023-05-13T06:49:09;4.83;;;4.43;;
4553;SDS011;2289;48.316;15.174;2023-05-13T06:51:37;4.63;;;4.20;;
4553;SDS011;2289;48.316;15.174;2023-05-13T06:54:06;5.40;;;4.60;;
4553;SDS011;2289;48.316;15.174;2023-05-13T06:56:36;6.03;;;4.97;;
4553;SDS011;2289;48.316;15.174;2023-05-13T06:59:05;7.20;;;4.33;;
4553;SDS011;2289;48.316;15.174;2023-05-13T07:01:35;6.23;;;5.00;;
4553;SDS011;2289;48.316;15.174;2023-05-13T07:04:04;4.20;;;3.80;;
4553;SDS011;2289;48.316;15.174;2023-05-13T07:06:33;5.63;;;4.83;;
4553;SDS011;2289;48.316;15.174;2023-05-13T07:09:02;6.13;;;5.53;;
4553;SDS011;2289;48.316;15.174;2023-05-13T07:11:34;8.10;;;5.10;;
4553;SDS011;2289;48.316;15.174;2023-05-13T07:14:02;6.60;;;5.87;;
4553;SDS011;2289;48.316;15.174;2023-05-13T07:16:31;5.80;;;5.30;;
4553;SDS011;2289;48.316;15.174;2023-05-13T07:19:01;5.93;;;5.33;;
4553;SDS011;2289;48.316;15.174;2023-05-13T07:21:30;7.23;;;5.30;;
4553;SDS011;2289;48.316;15.174;2023-05-13T07:23:59;5.70;;;5.13;;
4553;SDS011;2289;48.316;15.174;2023-05-13T07:26:28;5.33;;;4.83;;
4553;SDS011;2289;48.316;15.174;2023-05-13T07:28:57;7.23;;;6.53;;
4553;SDS011;2289;48.316;15.174;2023-05-13T07:31:26;11.10;;;8.33;;
4553;SDS011;2289;48.316;15.174;2023-05-13T07:33:56;7.83;;;6.93;;
4553;SDS011;2289;48.316;15.174;2023-05-13T07:36:27;9.10;;;7.37;;
4553;SDS011;2289;48.316;15.174;2023-05-13T07:38:56;12.63;;;6.60;;
4553;SDS011;2289;48.316;15.174;2023-05-13T07:41:25;5.80;;;5.17;;
4553;SDS011;2289;48.316;15.174;2023-05-13T07:43:54;6.67;;;6.07;;
4553;SDS011;2289;48.316;15.174;2023-05-13T07:46:23;5.00;;;4.60;;
4553;SDS011;2289;48.316;15.174;2023-05-13T07:48:52;6.63;;;5.90;;
4553;SDS011;2289;48.316;15.174;2023-05-13T07:51:21;6.87;;;6.13;;
4553;SDS011;2289;48.316;15.174;2023-05-13T07:53:52;7.07;;;6.00;;
4553;SDS011;2289;48.316;15.174;2023-05-13T07:56:20;7.10;;;6.40;;
4553;SDS011;2289;48.316;15.174;2023-05-13T07:58:49;6.63;;;6.03;;
4553;SDS011;2289;48.316;15.174;2023-05-13T08:01:18;7.43;;;6.30;;
4553;SDS011;2289;48.316;15.174;2023-05-13T08:03:47;5.93;;;5.33;;
4553;SDS011;2289;48.316;15.174;2023-05-13T08:06:16;8.20;;;5.43;;
4553;SDS011;2289;48.316;15.174;2023-05-13T08:08:45;5.47;;;4.97;;
4553;SDS011;2289;48.316;15.174;2023-05-13T08:11:15;8.20;;;6.80;;
4553;SDS011;2289;48.316;15.174;2023-05-13T08:13:44;6.93;;;6.00;;
4553;SDS011;2289;48.316;15.174;2023-05-13T08:16:13;6.50;;;5.13;;
4553;SDS011;2289;48.316;15.174;2023-05-13T08:18:42;8.13;;;6.03;;
4553;SDS011;2289;48.316;15.174;2023-05-13T08:21:11;5.50;;;4.97;;
4553;SDS011;2289;48.316;15.174;2023-05-13T08:23:40;4.87;;;4.17;;
4553;SDS011;2289;48.316;15.174;2023-05-13T08:26:12;5.40;;;4.90;;
4553;SDS011;2289;48.316;15.174;2023-05-13T08:28:42;5.50;;;5.10;;
4553;SDS011;2289;48.316;15.174;2023-05-13T08:31:11;6.60;;;5.00;;
4553;SDS011;2289;48.316;15.174;2023-05-13T08:33:40;5.03;;;4.60;;
4553;SDS011;2289;48.316;15.174;2023-05-13T08:36:11;6.20;;;5.70;;
4553;SDS011;2289;48.316;15.174;2023-05-13T08:38:40;7.47;;;6.37;;
4553;SDS011;2289;48.316;15.174;2023-05-13T08:41:10;7.40;;;5.53;;
4553;SDS011;2289;48.316;15.174;2023-05-13T08:43:39;7.77;;;6.97;;
4553;SDS011;2289;48.316;15.174;2023-05-13T08:46:11;6.77;;;6.17;;
4553;SDS011;2289;48.316;15.174;2023-05-13T08:48:40;6.50;;;5.90;;
4553;SDS011;2289;48.316;15.174;2023-05-13T08:51:09;6.60;;;5.90;;
4553;SDS011;2289;48.316;15.174;2023-05-13T08:53:39;7.50;;;6.77;;
4553;SDS011;2289;48.316;15.174;2023-05-13T08:56:08;5.43;;;4.93;;
4553;SDS011;2289;48.316;15.174;2023-05-13T08:58:37;7.73;;;6.80;;
4553;SDS011;2289;48.316;15.174;2023-05-13T09:01:07;10.07;;;7.80;;
4553;SDS011;2289;48.316;15.174;2023-05-13T09:03:37;10.53;;;9.00;;
4553;SDS011;2289;48.316;15.174;2023-05-13T09:06:10;9.47;;;8.50;;
4553;SDS011;2289;48.316;15.174;2023-05-13T09:08:40;11.97;;;10.43;;
4553;SDS011;2289;48.316;15.174;2023-05-13T09:11:09;12.03;;;9.67;;
4553;SDS011;2289;48.316;15.174;2023-05-13T09:13:37;14.57;;;9.77;;
4553;SDS011;2289;48.316;15.174;2023-05-13T09:16:08;12.13;;;9.73;;
4553;SDS011;2289;48.316;15.174;2023-05-13T09:18:39;11.10;;;8.97;;
4553;SDS011;2289;48.316;15.174;2023-05-13T09:21:22;11.87;;;10.67;;
4553;SDS011;2289;48.316;15.174;2023-05-13T09:23:55;10.87;;;9.80;;
4553;SDS011;2289;48.316;15.174;2023-05-13T09:26:37;10.63;;;9.27;;
4553;SDS011;2289;48.316;15.174;2023-05-13T09:29:17;9.20;;;8.23;;
4553;SDS011;2289;48.316;15.174;2023-05-13T09:31:51;10.27;;;9.33;;
4553;SDS011;2289;48.316;15.174;2023-05-13T09:34:23;11.47;;;9.73;;
4553;SDS011;2289;48.316;15.174;2023-05-13T09:36:54;9.50;;;8.50;;
4553;SDS011;2289;48.316;15.174;2023-05-13T09:39:23;11.63;;;9.00;;
4553;SDS011;2289;48.316;15.174;2023-05-13T09:41:52;11.80;;;9.77;;
4553;SDS011;2289;48.316;15.174;2023-05-13T09:44:21;9.87;;;8.33;;
4553;SDS011;2289;48.316;15.174;2023-05-13T09:46:51;9.00;;;8.10;;
4553;SDS011;2289;48.316;15.174;2023-05-13T09:49:22;7.83;;;7.03;;
4553;SDS011;2289;48.316;15.174;2023-05-13T09:51:52;10.13;;;9.13;;
4553;SDS011;2289;48.316;15.174;2023-05-13T09:54:20;10.30;;;8.40;;
4553;SDS011;2289;48.316;15.174;2023-05-13T09:56:49;8.73;;;7.93;;
4553;SDS011;2289;48.316;15.174;2023-05-13T09:59:26;9.70;;;8.70;;
4553;SDS011;2289;48.316;15.174;2023-05-13T10:01:56;10.90;;;8.90;;
4553;SDS011;2289;48.316;15.174;2023-05-13T10:04:27;8.03;;;7.30;;
4553;SDS011;2289;48.316;15.174;2023-05-13T10:06:57;8.93;;;7.60;;
4553;SDS011;2289;48.316;15.174;2023-05-13T10:09:25;8.53;;;7.50;;
4553;SDS011;2289;48.316;15.174;2023-05-13T10:11:56;8.90;;;7.10;;
4553;SDS011;2289;48.316;15.174;2023-05-13T10:14:26;9.30;;;8.30;;
4553;SDS011;2289;48.316;15.174;2023-05-13T10:16:57;10.83;;;9.70;;
4553;SDS011;2289;48.316;15.174;2023-05-13T10:19:26;9.80;;;8.23;;
4553;SDS011;2289;48.316;15.174;2023-05-13T10:21:55;10.00;;;9.00;;
4553;SDS011;2289;48.316;15.174;2023-05-13T10:24:24;11.23;;;10.03;;
4553;SDS011;2289;48.316;15.174;2023-05-13T10:26:54;14.07;;;10.40;;
4553;SDS011;2289;48.316;15.174;2023-05-13T10:29:24;11.73;;;9.73;;
4553;SDS011;2289;48.316;15.174;2023-05-13T10:31:53;10.57;;;9.47;;
4553;SDS011;2289;48.316;15.174;2023-05-13T10:34:24;12.40;;;8.90;;
4553;SDS011;2289;48.316;15.174;2023-05-13T10:36:58;14.30;;;11.67;;
4553;SDS011;2289;48.316;15.174;2023-05-13T10:39:40;12.43;;;10.77;;
4553;SDS011;2289;48.316;15.174;2023-05-13T10:42:30;11.27;;;9.70;;
4553;SDS011;2289;48.316;15.174;2023-05-13T10:45:08;11.77;;;10.57;;
4553;SDS011;2289;48.316;15.174;2023-05-13T10:47:37;14.90;;;10.20;;
4553;SDS011;2289;48.316;15.174;2023-05-13T10:50:20;12.57;;;9.87;;
4553;SDS011;2289;48.316;15.174;2023-05-13T10:52:54;12.03;;;9.93;;
4553;SDS011;2289;48.316;15.174;2023-05-13T10:55:24;12.80;;;10.17;;
4553;SDS011;2289;48.316;15.174;2023-05-13T10:58:03;12.13;;;10.67;;
4553;SDS011;2289;48.316;15.174;2023-05-13T11:00:36;14.40;;;11.90;;
4553;SDS011;2289;48.316;15.174;2023-05-13T11:03:12;12.73;;;11.10;;
4553;SDS011;2289;48.316;15.174;2023-05-13T11:05:44;11.73;;;10.20;;
4553;SDS011;2289;48.316;15.174;2023-05-13T11:11:15;12.83;;;10.90;;
4553;SDS011;2289;48.316;15.174;2023-05-13T11:13:45;10.33;;;9.30;;
4553;SDS011;2289;48.316;15.174;2023-05-13T11:16:14;9.80;;;8.70;;
4553;SDS011;2289;48.316;15.174;2023-05-13T11:18:44;15.40;;;11.07;;
4553;SDS011;2289;48.316;15.174;2023-05-13T11:21:14;11.63;;;10.43;;
4553;SDS011;2289;48.316;15.174;2023-05-13T11:23:54;11.17;;;10.07;;
4553;SDS011;2289;48.316;15.174;2023-05-13T11:26:24;11.13;;;9.97;;
4553;SDS011;2289;48.316;15.174;2023-05-13T11:28:57;14.37;;;10.07;;
4553;SDS011;2289;48.316;15.174;2023-05-13T11:31:27;12.10;;;9.60;;
4553;SDS011;2289;48.316;15.174;2023-05-13T11:34:05;11.93;;;10.43;;
4553;SDS011;2289;48.316;15.174;2023-05-13T11:36:37;13.50;;;9.00;;
4553;SDS011;2289;48.316;15.174;2023-05-13T11:39:08;21.23;;;11.67;;
4553;SDS011;2289;48.316;15.174;2023-05-13T11:41:41;14.03;;;11.30;;
4553;SDS011;2289;48.316;15.174;2023-05-13T11:44:12;16.67;;;12.17;;
4553;SDS011;2289;48.316;15.174;2023-05-13T11:46:49;17.50;;;12.57;;
4553;SDS011;2289;48.316;15.174;2023-05-13T11:49:29;17.33;;;14.10;;
4553;SDS011;2289;48.316;15.174;2023-05-13T11:52:01;15.70;;;12.27;;
4553;SDS011;2289;48.316;15.174;2023-05-13T11:54:30;16.93;;;13.10;;
4553;SDS011;2289;48.316;15.174;2023-05-13T11:56:59;17.33;;;13.10;;
4553;SDS011;2289;48.316;15.174;2023-05-13T11:59:27;14.10;;;11.70;;
4553;SDS011;2289;48.316;15.174;2023-05-13T12:02:07;13.10;;;11.70;;
4553;SDS011;2289;48.316;15.174;2023-05-13T12:04:36;15.17;;;12.00;;
4553;SDS011;2289;48.316;15.174;2023-05-13T12:07:06;14.90;;;11.50;;
4553;SDS011;2289;48.316;15.174;2023-05-13T12:09:39;13.53;;;11.50;;
4553;SDS011;2289;48.316;15.174;2023-05-13T12:12:07;12.50;;;10.90;;
4553;SDS011;2289;48.316;15.174;2023-05-13T12:14:36;12.97;;;9.83;;
4553;SDS011;2289;48.316;15.174;2023-05-13T12:17:05;10.27;;;9.17;;
4553;SDS011;2289;48.316;15.174;2023-05-13T12:19:36;16.63;;;9.00;;
4553;SDS011;2289;48.316;15.174;2023-05-13T12:22:07;10.60;;;8.10;;
4553;SDS011;2289;48.316;15.174;2023-05-13T12:24:35;12.50;;;8.90;;
4553;SDS011;2289;48.316;15.174;2023-05-13T12:27:04;8.70;;;7.80;;
4553;SDS011;2289;48.316;15.174;2023-05-13T12:29:40;10.00;;;7.63;;
4553;SDS011;2289;48.316;15.174;2023-05-13T12:32:09;8.37;;;7.30;;
4553;SDS011;2289;48.316;15.174;2023-05-13T12:34:38;9.47;;;8.27;;
4553;SDS011;2289;48.316;15.174;2023-05-13T12:37:12;11.93;;;8.60;;
4553;SDS011;2289;48.316;15.174;2023-05-13T12:39:41;9.60;;;7.80;;
4553;SDS011;2289;48.316;15.174;2023-05-13T12:42:13;8.40;;;7.40;;
4553;SDS011;2289;48.316;15.174;2023-05-13T12:44:43;12.23;;;7.77;;
4553;SDS011;2289;48.316;15.174;2023-05-13T12:47:12;8.80;;;7.90;;
4553;SDS011;2289;48.316;15.174;2023-05-13T12:49:52;7.70;;;5.73;;
4553;SDS011;2289;48.316;15.174;2023-05-13T12:52:23;9.90;;;8.30;;
4553;SDS011;2289;48.316;15.174;2023-05-13T12:54:52;9.20;;;7.27;;
4553;SDS011;2289;48.316;15.174;2023-05-13T12:57:21;9.13;;;8.10;;
4553;SDS011;2289;48.316;15.174;2023-05-13T12:59:50;13.17;;;8.07;;
4553;SDS011;2289;48.316;15.174;2023-05-13T13:02:19;9.80;;;8.60;;
4553;SDS011;2289;48.316;15.174;2023-05-13T13:04:48;9.70;;;7.80;;
4553;SDS011;2289;48.316;15.174;2023-05-13T13:07:17;8.17;;;7.40;;
4553;SDS011;2289;48.316;15.174;2023-05-13T13:09:47;8.00;;;6.70;;
4553;SDS011;2289;48.316;15.174;2023-05-13T13:12:15;8.70;;;7.83;;
4553;SDS011;2289;48.316;15.174;2023-05-13T13:14:44;12.30;;;7.70;;
4553;SDS011;2289;48.316;15.174;2023-05-13T13:17:12;12.27;;;9.43;;
4553;SDS011;2289;48.316;15.174;2023-05-13T13:19:41;9.13;;;8.23;;
4553;SDS011;2289;48.316;15.174;2023-05-13T13:22:10;10.47;;;8.83;;
4553;SDS011;2289;48.316;15.174;2023-05-13T13:24:39;8.27;;;7.47;;
4553;SDS011;2289;48.316;15.174;2023-05-13T13:27:10;12.30;;;10.07;;
4553;SDS011;2289;48.316;15.174;2023-05-13T13:29:39;12.60;;;9.40;;
4553;SDS011;2289;48.316;15.174;2023-05-13T13:32:08;9.37;;;8.10;;
4553;SDS011;2289;48.316;15.174;2023-05-13T13:34:37;11.37;;;8.07;;
4553;SDS011;2289;48.316;15.174;2023-05-13T13:37:07;9.00;;;7.70;;
4553;SDS011;2289;48.316;15.174;2023-05-13T13:39:35;9.50;;;8.60;;
4553;SDS011;2289;48.316;15.174;2023-05-13T13:42:04;9.77;;;8.77;;
4553;SDS011;2289;48.316;15.174;2023-05-13T13:44:35;8.10;;;6.90;;
4553;SDS011;2289;48.316;15.174;2023-05-13T13:47:05;11.13;;;8.70;;
4553;SDS011;2289;48.316;15.174;2023-05-13T13:49:33;7.50;;;6.20;;
4553;SDS011;2289;48.316;15.174;2023-05-13T13:52:02;8.70;;;6.40;;
4553;SDS011;2289;48.316;15.174;2023-05-13T13:54:32;9.33;;;7.47;;
4553;SDS011;2289;48.316;15.174;2023-05-13T13:57:00;10.63;;;9.37;;
4553;SDS011;2289;48.316;15.174;2023-05-13T13:59:29;9.50;;;8.47;;
4553;SDS011;2289;48.316;15.174;2023-05-13T14:02:00;12.03;;;10.30;;
4553;SDS011;2289;48.316;15.174;2023-05-13T14:04:29;9.67;;;8.30;;
4553;SDS011;2289;48.316;15.174;2023-05-13T14:07:01;10.07;;;8.33;;
4553;SDS011;2289;48.316;15.174;2023-05-13T14:09:31;10.60;;;8.67;;
4553;SDS011;2289;48.316;15.174;2023-05-13T14:11:59;14.23;;;9.97;;
4553;SDS011;2289;48.316;15.174;2023-05-13T14:14:28;13.83;;;9.97;;
4553;SDS011;2289;48.316;15.174;2023-05-13T14:16:57;12.13;;;9.13;;
4553;SDS011;2289;48.316;15.174;2023-05-13T14:19:27;12.63;;;10.37;;
4553;SDS011;2289;48.316;15.174;2023-05-13T14:21:56;9.17;;;8.27;;
4553;SDS011;2289;48.316;15.174;2023-05-13T14:24:24;9.80;;;8.60;;
4553;SDS011;2289;48.316;15.174;2023-05-13T14:26:54;13.00;;;10.17;;
4553;SDS011;2289;48.316;15.174;2023-05-13T14:29:23;11.67;;;9.50;;
4553;SDS011;2289;48.316;15.174;2023-05-13T14:31:52;10.30;;;8.80;;
4553;SDS011;2289;48.316;15.174;2023-05-13T14:34:22;14.20;;;8.87;;
4553;SDS011;2289;48.316;15.174;2023-05-13T14:36:52;10.50;;;9.40;;
4553;SDS011;2289;48.316;15.174;2023-05-13T14:39:21;12.17;;;8.70;;
4553;SDS011;2289;48.316;15.174;2023-05-13T14:41:50;11.20;;;9.40;;
4553;SDS011;2289;48.316;15.174;2023-05-13T14:44:18;12.40;;;9.30;;
4553;SDS011;2289;48.316;15.174;2023-05-13T14:46:47;13.83;;;10.73;;
4553;SDS011;2289;48.316;15.174;2023-05-13T14:49:16;13.23;;;9.97;;
4553;SDS011;2289;48.316;15.174;2023-05-13T14:51:45;18.67;;;13.30;;
4553;SDS011;2289;48.316;15.174;2023-05-13T14:54:15;13.50;;;11.67;;
4553;SDS011;2289;48.316;15.174;2023-05-13T14:56:44;12.90;;;10.37;;
4553;SDS011;2289;48.316;15.174;2023-05-13T14:59:14;14.80;;;11.17;;
4553;SDS011;2289;48.316;15.174;2023-05-13T15:01:42;15.30;;;12.13;;
4553;SDS011;2289;48.316;15.174;2023-05-13T15:04:12;13.00;;;10.97;;
4553;SDS011;2289;48.316;15.174;2023-05-13T15:06:41;21.50;;;12.10;;
4553;SDS011;2289;48.316;15.174;2023-05-13T15:09:10;18.13;;;13.30;;
4553;SDS011;2289;48.316;15.174;2023-05-13T15:11:40;16.40;;;12.60;;
4553;SDS011;2289;48.316;15.174;2023-05-13T15:14:09;16.97;;;12.30;;